Time;durP1;ratioP1;P1;durP2;ratioP2;P2;SDS_P1;SDS_P2;PMS_P1;PMS_P2;Temp;Humidity;BMP_temperature;BMP_pressure;BME280_temperature;BME280_humidity;BME280_pressure;Samples;Min_cycle;Max_cycle;Signal;HPM_P1;HPM_P2
2021/10/12 00:01:21;;;;;;;15.98;5.80;;;9.80;99.90;;;;;;5099624;28;20027;-60
2021/10/12 00:03:47;;;;;;;22.25;5.45;;;9.80;99.90;;;;;;5101339;28;20028;-58
2021/10/12 00:06:13;;;;;;;17.48;5.80;;;9.80;99.90;;;;;;5098046;28;20059;-60
2021/10/12 00:08:39;;;;;;;19.23;5.88;;;9.80;99.90;;;;;;5096767;28;20042;-60
2021/10/12 00:11:04;;;;;;;20.73;6.80;;;9.70;99.90;;;;;;5102195;28;20862;-60
2021/10/12 00:13:31;;;;;;;13.48;5.55;;;9.70;99.90;;;;;;5108557;28;20024;-60
2021/10/12 00:15:56;;;;;;;21.27;6.57;;;9.70;99.90;;;;;;5111005;28;20484;-60
2021/10/12 00:18:22;;;;;;;17.80;6.07;;;9.70;99.90;;;;;;5110395;28;20023;-59
2021/10/12 00:20:48;;;;;;;17.95;6.22;;;9.70;99.90;;;;;;5106984;28;20051;-58
2021/10/12 00:23:14;;;;;;;20.45;6.97;;;9.70;99.90;;;;;;5107088;28;20496;-60
2021/10/12 00:25:39;;;;;;;16.40;6.20;;;9.70;99.90;;;;;;5110806;28;20034;-58
2021/10/12 00:28:05;;;;;;;24.13;7.70;;;9.70;99.90;;;;;;5105875;28;20096;-59
2021/10/12 00:30:30;;;;;;;16.83;5.68;;;9.70;99.90;;;;;;5103090;28;20085;-60
2021/10/12 00:32:56;;;;;;;22.02;5.97;;;9.70;99.90;;;;;;5109224;28;20106;-59
2021/10/12 00:35:22;;;;;;;14.95;5.78;;;9.70;99.90;;;;;;5103909;28;20028;-59
2021/10/12 00:37:47;;;;;;;20.90;5.78;;;9.70;99.90;;;;;;5103982;28;20053;-59
2021/10/12 00:40:13;;;;;;;16.08;5.30;;;9.70;99.90;;;;;;5103549;28;20051;-59
2021/10/12 00:42:38;;;;;;;17.73;5.57;;;9.70;99.90;;;;;;5104944;28;20024;-59
2021/10/12 00:45:11;;;;;;;23.83;5.35;;;9.70;99.90;;;;;;5108476;28;20094;-57
2021/10/12 00:47:37;;;;;;;14.95;4.82;;;9.80;99.90;;;;;;5110517;28;20035;-59
2021/10/12 00:50:05;;;;;;;18.85;5.53;;;9.80;99.90;;;;;;5099111;28;20027;-59
2021/10/12 00:52:30;;;;;;;19.23;5.72;;;9.80;99.90;;;;;;5099347;28;20028;-59
2021/10/12 00:54:56;;;;;;;16.70;5.50;;;9.80;99.90;;;;;;5102845;28;20367;-59
2021/10/12 00:57:21;;;;;;;17.20;6.10;;;9.80;99.90;;;;;;5103549;28;20062;-59
2021/10/12 00:59:47;;;;;;;29.63;6.88;;;9.90;99.90;;;;;;5104963;28;20038;-57
2021/10/12 01:02:13;;;;;;;20.58;5.15;;;9.90;99.90;;;;;;5108149;28;20091;-58
2021/10/12 01:04:39;;;;;;;18.05;5.70;;;9.90;99.90;;;;;;5098658;28;20440;-59
2021/10/12 01:07:05;;;;;;;14.10;4.75;;;9.90;99.90;;;;;;5103691;28;20028;-58
2021/10/12 01:09:30;;;;;;;17.27;5.75;;;9.90;99.90;;;;;;5109333;28;20108;-59
2021/10/12 01:11:57;;;;;;;11.35;5.53;;;9.90;99.90;;;;;;5109746;28;20024;-56
2021/10/12 01:14:24;;;;;;;17.25;5.75;;;9.90;99.90;;;;;;5106375;28;20040;-59
2021/10/12 01:16:50;;;;;;;19.17;5.65;;;9.90;99.90;;;;;;5110245;28;20058;-57
2021/10/12 01:19:18;;;;;;;16.73;6.28;;;9.90;99.90;;;;;;5108576;28;20059;-60
2021/10/12 01:21:46;;;;;;;19.08;5.93;;;9.90;99.90;;;;;;5109469;28;20746;-60
2021/10/12 01:24:13;;;;;;;18.80;5.95;;;9.90;99.90;;;;;;5108210;28;20028;-58
2021/10/12 01:26:40;;;;;;;16.77;6.10;;;9.90;99.90;;;;;;5107784;28;20032;-59
2021/10/12 01:29:07;;;;;;;17.38;5.95;;;9.90;99.90;;;;;;5105264;28;20036;-58
2021/10/12 01:31:34;;;;;;;21.45;6.00;;;9.80;99.90;;;;;;5106934;28;20060;-59
2021/10/12 01:34:00;;;;;;;17.92;6.00;;;9.80;99.90;;;;;;5108532;28;20068;-59
2021/10/12 01:36:26;;;;;;;15.25;5.90;;;9.80;99.90;;;;;;5109449;28;20035;-58
2021/10/12 01:38:54;;;;;;;24.42;6.53;;;9.80;99.90;;;;;;5108217;28;20027;-58
2021/10/12 01:41:20;;;;;;;22.10;5.32;;;9.80;99.90;;;;;;5113278;28;20031;-59
2021/10/12 01:43:46;;;;;;;20.20;5.65;;;9.80;99.90;;;;;;5108988;28;20032;-60
2021/10/12 01:46:11;;;;;;;18.88;6.25;;;9.80;99.90;;;;;;5109286;28;20396;-59
2021/10/12 01:48:37;;;;;;;16.65;6.63;;;9.80;99.90;;;;;;5103749;28;20121;-59
2021/10/12 01:51:04;;;;;;;25.20;5.80;;;9.80;99.90;;;;;;5110078;28;20047;-60
2021/10/12 01:53:30;;;;;;;22.25;5.75;;;9.80;99.90;;;;;;5110538;28;20023;-59
2021/10/12 01:55:56;;;;;;;19.92;6.50;;;9.80;99.90;;;;;;5113104;28;20028;-59
2021/10/12 01:58:22;;;;;;;17.75;5.88;;;9.80;99.90;;;;;;5112790;28;20034;-59
2021/10/12 02:00:48;;;;;;;13.05;5.70;;;9.80;99.90;;;;;;5112144;28;20031;-59
2021/10/12 02:03:14;;;;;;;12.63;5.75;;;9.80;99.90;;;;;;5106143;28;20062;-60
2021/10/12 02:05:39;;;;;;;15.30;5.45;;;9.80;99.90;;;;;;5102481;28;20026;-59
2021/10/12 02:08:05;;;;;;;20.40;5.65;;;9.80;99.90;;;;;;5107768;28;20428;-59
2021/10/12 02:10:30;;;;;;;14.13;6.30;;;9.80;99.90;;;;;;5104403;28;20027;-58
2021/10/12 02:12:56;;;;;;;18.63;5.80;;;9.80;99.90;;;;;;5101864;28;20039;-57
2021/10/12 02:15:22;;;;;;;19.90;6.78;;;9.80;99.90;;;;;;5104741;28;20022;-59
2021/10/12 02:17:47;;;;;;;17.98;6.03;;;9.80;99.90;;;;;;5102015;28;20034;-58
2021/10/12 02:20:13;;;;;;;12.43;5.60;;;9.80;99.90;;;;;;5101473;28;20027;-59
2021/10/12 02:22:39;;;;;;;18.15;5.97;;;9.80;99.90;;;;;;5106428;28;20035;-57
2021/10/12 02:25:08;;;;;;;18.40;7.68;;;9.80;99.90;;;;;;5105317;28;20024;-58
2021/10/12 02:27:34;;;;;;;11.20;5.97;;;9.80;99.90;;;;;;5109153;28;20144;-59
2021/10/12 02:29:59;;;;;;;23.45;7.70;;;9.80;99.90;;;;;;5106443;28;20114;-59
2021/10/12 02:32:25;;;;;;;20.55;9.00;;;9.80;99.90;;;;;;5108223;28;21787;-58
2021/10/12 02:34:51;;;;;;;26.90;9.93;;;9.80;99.90;;;;;;5101973;28;20028;-59
2021/10/12 02:37:16;;;;;;;19.63;10.15;;;9.80;99.90;;;;;;5108791;28;20469;-60
2021/10/12 02:39:42;;;;;;;19.42;10.57;;;9.80;99.90;;;;;;5109883;28;20087;-60
2021/10/12 02:42:08;;;;;;;26.98;11.40;;;9.80;99.90;;;;;;5106858;28;20049;-58
2021/10/12 02:44:34;;;;;;;18.27;9.93;;;9.80;99.90;;;;;;5110979;28;20039;-58
2021/10/12 02:47:00;;;;;;;15.75;9.35;;;9.80;99.90;;;;;;5107521;28;20055;-59
2021/10/12 02:49:26;;;;;;;15.23;9.88;;;9.80;99.90;;;;;;5107852;28;20693;-60
2021/10/12 02:51:51;;;;;;;19.33;11.35;;;9.80;99.90;;;;;;5105914;28;20100;-59
2021/10/12 02:54:17;;;;;;;19.10;11.45;;;9.80;99.90;;;;;;5106099;28;20031;-59
2021/10/12 02:56:43;;;;;;;17.48;11.55;;;9.70;99.90;;;;;;5103300;28;20038;-58
2021/10/12 02:59:09;;;;;;;20.77;12.02;;;9.80;99.90;;;;;;5108567;28;20024;-59
2021/10/12 03:01:34;;;;;;;26.05;12.50;;;9.80;99.90;;;;;;5107042;28;20035;-59
2021/10/12 03:04:00;;;;;;;20.10;12.32;;;9.80;99.90;;;;;;5107748;28;20427;-58
2021/10/12 03:06:25;;;;;;;23.67;14.23;;;9.80;99.90;;;;;;5108885;28;20515;-60
2021/10/12 03:08:51;;;;;;;23.05;14.20;;;9.80;99.90;;;;;;5106651;28;20483;-58
2021/10/12 03:11:17;;;;;;;25.85;14.32;;;9.80;99.90;;;;;;5108791;28;20107;-58
2021/10/12 03:13:43;;;;;;;30.42;16.42;;;9.80;99.90;;;;;;5108180;28;20031;-58
2021/10/12 03:16:08;;;;;;;27.40;16.42;;;9.80;99.90;;;;;;5106703;28;20024;-58
2021/10/12 03:18:35;;;;;;;26.23;16.45;;;9.80;99.90;;;;;;5108904;28;20504;-58
2021/10/12 03:21:01;;;;;;;31.02;16.77;;;9.80;99.90;;;;;;5110360;28;20035;-60
2021/10/12 03:23:27;;;;;;;30.77;17.75;;;9.80;99.90;;;;;;5105550;28;20031;-59
2021/10/12 03:25:53;;;;;;;27.80;17.02;;;9.80;99.90;;;;;;5111168;28;20020;-59
2021/10/12 03:28:19;;;;;;;37.33;19.02;;;9.90;99.90;;;;;;5111178;28;20104;-59
2021/10/12 03:30:44;;;;;;;28.98;17.75;;;9.80;99.90;;;;;;5112002;28;20476;-58
2021/10/12 03:33:10;;;;;;;29.70;18.20;;;9.80;99.90;;;;;;5111231;28;20211;-59
2021/10/12 03:35:38;;;;;;;34.80;18.83;;;9.80;99.90;;;;;;5111960;28;20046;-58
2021/10/12 03:38:04;;;;;;;33.78;19.00;;;9.80;99.90;;;;;;5109372;28;20042;-59
2021/10/12 03:40:30;;;;;;;32.55;17.35;;;9.80;99.90;;;;;;5109835;28;20027;-59
2021/10/12 03:42:55;;;;;;;37.17;18.65;;;9.80;99.90;;;;;;5106348;28;20031;-52
2021/10/12 03:45:21;;;;;;;34.20;17.83;;;9.80;99.90;;;;;;5104626;28;20024;-59
2021/10/12 03:47:47;;;;;;;36.97;17.73;;;9.70;99.90;;;;;;5109160;28;20080;-59
2021/10/12 03:50:14;;;;;;;34.58;16.92;;;9.80;99.90;;;;;;5107599;28;20282;-59
2021/10/12 03:52:40;;;;;;;30.38;16.65;;;9.80;99.90;;;;;;5101856;28;20027;-58
2021/10/12 03:55:06;;;;;;;28.23;16.52;;;9.80;99.90;;;;;;5104210;28;20031;-58
2021/10/12 03:57:32;;;;;;;25.83;16.23;;;9.80;99.90;;;;;;5104142;28;20024;-59
2021/10/12 03:59:57;;;;;;;32.28;17.77;;;9.80;99.90;;;;;;5104763;28;20449;-57
2021/10/12 04:02:23;;;;;;;36.47;18.90;;;9.80;99.90;;;;;;5107053;28;20050;-59
2021/10/12 04:04:49;;;;;;;37.70;18.55;;;9.80;99.90;;;;;;5104343;28;20476;-59
2021/10/12 04:07:14;;;;;;;39.00;19.88;;;9.80;99.90;;;;;;5108539;28;20028;-59
2021/10/12 04:09:40;;;;;;;42.10;21.73;;;9.80;99.90;;;;;;5107383;28;20111;-58
2021/10/12 04:12:06;;;;;;;39.17;22.08;;;9.80;99.90;;;;;;5107865;28;20027;-58
2021/10/12 04:14:31;;;;;;;44.92;23.63;;;9.80;99.90;;;;;;5106454;28;20027;-59
2021/10/12 04:16:57;;;;;;;41.30;22.13;;;9.80;99.90;;;;;;5100982;28;20558;-58
2021/10/12 04:19:22;;;;;;;44.00;21.63;;;9.80;99.90;;;;;;5103734;28;20566;-60
2021/10/12 04:21:48;;;;;;;45.50;20.92;;;9.80;99.90;;;;;;5107210;28;20089;-60
2021/10/12 04:24:14;;;;;;;36.92;19.42;;;9.80;99.90;;;;;;5098150;28;20106;-60
2021/10/12 04:26:40;;;;;;;34.72;18.67;;;9.80;99.90;;;;;;5101773;28;20027;-59
2021/10/12 04:29:06;;;;;;;37.30;19.65;;;9.80;99.90;;;;;;5099267;28;20032;-60
2021/10/12 04:31:33;;;;;;;35.13;19.58;;;9.80;99.90;;;;;;5103648;28;20027;-60
2021/10/12 04:33:58;;;;;;;37.17;19.80;;;9.80;99.90;;;;;;5103260;27;20071;-58
2021/10/12 04:36:24;;;;;;;41.35;21.35;;;9.90;99.90;;;;;;5103678;28;20070;-59
2021/10/12 04:38:50;;;;;;;41.83;22.33;;;9.80;99.90;;;;;;5103862;28;20023;-60
2021/10/12 04:41:15;;;;;;;45.45;22.13;;;9.80;99.90;;;;;;5106326;28;20050;-59
2021/10/12 04:43:41;;;;;;;40.95;21.88;;;9.80;99.90;;;;;;5105072;28;20020;-55
2021/10/12 04:46:07;;;;;;;36.42;22.30;;;9.80;99.90;;;;;;5108584;28;20034;-57
2021/10/12 04:48:33;;;;;;;41.85;22.45;;;9.80;99.90;;;;;;5100969;28;20088;-60
2021/10/12 04:50:59;;;;;;;43.38;20.92;;;9.80;99.90;;;;;;5100606;28;20089;-60
2021/10/12 04:53:24;;;;;;;51.50;23.27;;;9.80;99.90;;;;;;5107830;28;20027;-59
2021/10/12 04:55:50;;;;;;;40.35;22.13;;;9.80;99.90;;;;;;5104500;28;20392;-60
2021/10/12 04:58:16;;;;;;;44.58;23.15;;;9.80;99.90;;;;;;5105137;28;20028;-58
2021/10/12 05:00:41;;;;;;;36.15;22.13;;;9.80;99.90;;;;;;5105538;28;20023;-60
2021/10/12 05:03:07;;;;;;;50.65;24.67;;;9.80;99.90;;;;;;5104875;28;20027;-59
2021/10/12 05:05:33;;;;;;;53.92;24.08;;;9.80;99.90;;;;;;5106671;28;20031;-58
2021/10/12 05:07:58;;;;;;;46.03;23.40;;;9.80;99.90;;;;;;5105516;28;20024;-56
2021/10/12 05:10:24;;;;;;;47.03;25.73;;;9.80;99.90;;;;;;5101603;28;20400;-58
2021/10/12 05:12:50;;;;;;;44.63;23.00;;;9.80;99.90;;;;;;5106012;28;20530;-58
2021/10/12 05:15:22;;;;;;;42.75;22.70;;;9.80;99.90;;;;;;5105932;28;20039;-59
2021/10/12 05:17:48;;;;;;;45.25;21.23;;;9.80;99.90;;;;;;5105193;28;20023;-57
2021/10/12 05:20:15;;;;;;;34.45;21.33;;;9.80;99.90;;;;;;5113586;28;20535;-60
2021/10/12 05:22:41;;;;;;;52.70;21.38;;;9.80;99.90;;;;;;5109285;28;20040;-59
2021/10/12 05:25:06;;;;;;;46.25;22.83;;;9.80;99.90;;;;;;5099932;28;20397;-58
2021/10/12 05:27:34;;;;;;;47.17;21.58;;;9.80;99.90;;;;;;5111825;28;20103;-58
2021/10/12 05:30:01;;;;;;;42.13;21.52;;;9.80;99.90;;;;;;5107750;28;20046;-59
2021/10/12 05:32:26;;;;;;;41.97;22.80;;;9.80;99.90;;;;;;5111249;28;20069;-58
2021/10/12 05:34:52;;;;;;;57.63;23.55;;;9.80;99.90;;;;;;5110294;28;20054;-60
2021/10/12 05:37:17;;;;;;;48.50;23.27;;;9.80;99.90;;;;;;5104299;28;20020;-60
2021/10/12 05:39:43;;;;;;;46.30;23.35;;;9.80;99.90;;;;;;5109315;28;20502;-59
2021/10/12 05:42:08;;;;;;;52.38;23.88;;;9.80;99.90;;;;;;5106082;28;20471;-57
2021/10/12 05:44:34;;;;;;;38.53;23.48;;;9.80;99.90;;;;;;5112185;28;20024;-58
2021/10/12 05:46:59;;;;;;;41.13;24.65;;;9.80;99.90;;;;;;5100352;28;20082;-59
2021/10/12 05:49:25;;;;;;;48.65;23.60;;;9.80;99.90;;;;;;5101807;28;20036;-59
2021/10/12 05:51:50;;;;;;;40.60;21.55;;;9.80;99.90;;;;;;5110269;28;20034;-59
2021/10/12 05:54:19;;;;;;;44.72;22.92;;;9.80;99.90;;;;;;5113232;28;20027;-59
2021/10/12 05:57:05;;;;;;;48.10;22.02;;;9.80;99.90;;;;;;5107881;28;20030;-60
2021/10/12 05:59:32;;;;;;;37.10;20.80;;;9.80;99.90;;;;;;5101902;28;20020;-59
2021/10/12 06:01:57;;;;;;;37.38;20.70;;;9.80;99.90;;;;;;5101785;28;20377;-60
2021/10/12 06:04:23;;;;;;;48.47;20.27;;;9.80;99.90;;;;;;5110882;28;20039;-60
2021/10/12 06:06:48;;;;;;;39.50;20.13;;;9.80;99.90;;;;;;5112435;28;20032;-59
2021/10/12 06:09:14;;;;;;;42.90;19.70;;;9.80;99.90;;;;;;5111432;28;20047;-59
2021/10/12 06:11:39;;;;;;;31.33;18.08;;;9.80;99.90;;;;;;5081926;28;20035;-57
2021/10/12 06:14:05;;;;;;;43.45;20.02;;;9.80;99.90;;;;;;5104219;28;20036;-59
2021/10/12 06:16:30;;;;;;;33.53;18.23;;;9.80;99.90;;;;;;5106689;28;20512;-59
2021/10/12 06:18:56;;;;;;;46.63;19.15;;;9.80;99.90;;;;;;5109161;28;20020;-57
2021/10/12 06:21:22;;;;;;;34.92;17.88;;;9.80;99.90;;;;;;5099519;28;20048;-58
2021/10/12 06:23:47;;;;;;;58.50;30.67;;;9.80;99.90;;;;;;5110481;28;20028;-60
2021/10/12 06:26:13;;;;;;;37.95;21.05;;;9.90;99.90;;;;;;5108188;28;20486;-60
2021/10/12 06:28:38;;;;;;;39.22;16.30;;;9.90;99.90;;;;;;5108895;28;20028;-59
2021/10/12 06:31:06;;;;;;;38.10;16.33;;;9.90;99.90;;;;;;5103351;28;20233;-60
2021/10/12 06:33:32;;;;;;;33.90;16.63;;;9.90;99.90;;;;;;5112587;28;20024;-59
2021/10/12 06:35:58;;;;;;;28.60;15.00;;;9.90;99.90;;;;;;5108204;28;20096;-59
2021/10/12 06:38:23;;;;;;;29.10;14.10;;;9.90;99.90;;;;;;5108770;28;20032;-58
2021/10/12 06:40:49;;;;;;;35.28;14.68;;;9.90;99.90;;;;;;5109876;28;20024;-59
2021/10/12 06:43:14;;;;;;;30.70;16.50;;;9.90;99.90;;;;;;5106387;28;20034;-59
2021/10/12 06:45:40;;;;;;;42.35;16.42;;;9.90;99.90;;;;;;5111788;28;20033;-60
2021/10/12 06:48:05;;;;;;;38.50;20.17;;;9.90;99.90;;;;;;5109032;28;20516;-59
2021/10/12 06:50:31;;;;;;;37.03;14.48;;;10.00;99.90;;;;;;5111459;28;20389;-60
2021/10/12 06:52:57;;;;;;;35.47;14.70;;;10.00;99.90;;;;;;5098635;28;20028;-59
2021/10/12 06:55:22;;;;;;;30.80;14.70;;;10.00;99.90;;;;;;5109816;28;20035;-57
2021/10/12 06:57:49;;;;;;;33.22;15.20;;;10.00;99.90;;;;;;5102985;28;20015;-59
2021/10/12 07:00:16;;;;;;;31.42;15.13;;;10.00;99.90;;;;;;5106728;28;20020;-59
2021/10/12 07:02:44;;;;;;;31.77;15.50;;;10.10;99.90;;;;;;5101145;28;20032;-59
2021/10/12 07:05:11;;;;;;;32.72;14.00;;;10.00;99.90;;;;;;5104047;28;20111;-60
2021/10/12 07:07:37;;;;;;;30.27;14.50;;;10.00;99.90;;;;;;5107014;28;20038;-59
2021/10/12 07:10:03;;;;;;;27.13;13.23;;;10.00;99.90;;;;;;5108034;28;20028;-59
2021/10/12 07:12:29;;;;;;;28.23;13.13;;;10.10;99.90;;;;;;5084325;28;20176;-59
2021/10/12 07:14:55;;;;;;;32.97;13.07;;;10.10;99.90;;;;;;5110441;27;20463;-58
2021/10/12 07:17:21;;;;;;;26.05;12.10;;;10.10;99.90;;;;;;5099185;28;20026;-57
2021/10/12 07:19:46;;;;;;;28.70;12.50;;;10.20;99.90;;;;;;5111089;28;20031;-59
2021/10/12 07:22:12;;;;;;;28.90;13.02;;;10.20;99.90;;;;;;5107297;28;20392;-58
2021/10/12 07:24:37;;;;;;;24.30;12.43;;;10.20;99.90;;;;;;5105063;28;20043;-57
2021/10/12 07:27:03;;;;;;;23.75;10.65;;;10.30;99.90;;;;;;5109550;28;20388;-54
2021/10/12 07:29:28;;;;;;;23.98;10.73;;;10.40;99.90;;;;;;5110291;28;20070;-58
2021/10/12 07:31:54;;;;;;;20.67;9.48;;;10.40;99.90;;;;;;5109318;28;20034;-57
2021/10/12 07:34:19;;;;;;;18.27;9.60;;;10.40;99.90;;;;;;5106059;28;20513;-57
2021/10/12 07:36:45;;;;;;;19.55;9.27;;;10.40;99.90;;;;;;5100533;28;20434;-58
2021/10/12 07:39:10;;;;;;;15.23;9.25;;;10.40;99.90;;;;;;5109225;28;20099;-58
2021/10/12 07:41:37;;;;;;;20.85;8.60;;;10.50;99.90;;;;;;5100243;28;20055;-59
2021/10/12 07:44:03;;;;;;;24.40;9.43;;;10.50;99.90;;;;;;5099262;28;20024;-58
2021/10/12 07:46:29;;;;;;;16.38;9.52;;;10.40;99.90;;;;;;5108088;28;20122;-59
2021/10/12 07:48:58;;;;;;;20.80;10.27;;;10.40;99.90;;;;;;5105038;28;20122;-58
2021/10/12 07:51:28;;;;;;;17.67;9.15;;;10.40;99.90;;;;;;5108493;28;20039;-59
2021/10/12 07:53:56;;;;;;;20.13;10.57;;;10.40;99.90;;;;;;5110106;28;20020;-58
2021/10/12 07:56:37;;;;;;;20.70;10.93;;;10.30;99.90;;;;;;5106554;28;20092;-57
2021/10/12 07:59:08;;;;;;;19.10;10.45;;;10.30;99.90;;;;;;5098556;28;20112;-59
2021/10/12 08:01:35;;;;;;;19.50;9.30;;;10.30;99.90;;;;;;5108335;28;20055;-57
2021/10/12 08:04:02;;;;;;;22.60;10.15;;;10.30;99.90;;;;;;5104468;28;20028;-59
2021/10/12 08:06:28;;;;;;;20.70;10.32;;;10.30;99.90;;;;;;5106614;28;20040;-59
2021/10/12 08:08:54;;;;;;;24.65;10.98;;;10.30;99.90;;;;;;5107217;28;20042;-59
2021/10/12 08:11:24;;;;;;;24.77;10.75;;;10.40;99.90;;;;;;5088778;28;20385;-55
2021/10/12 08:13:53;;;;;;;16.13;9.35;;;10.40;99.90;;;;;;5107896;28;20076;-58
2021/10/12 08:16:24;;;;;;;23.35;10.55;;;10.40;99.90;;;;;;5109121;28;20407;-57
2021/10/12 08:18:49;;;;;;;14.90;8.30;;;10.40;99.90;;;;;;5110791;28;20031;-59
2021/10/12 08:21:15;;;;;;;22.33;8.18;;;10.40;99.90;;;;;;5109335;28;20039;-58
2021/10/12 08:23:40;;;;;;;16.27;8.02;;;10.30;99.90;;;;;;5105924;28;20028;-58
2021/10/12 08:26:06;;;;;;;14.48;6.65;;;10.30;99.90;;;;;;5106413;28;20107;-59
2021/10/12 08:28:32;;;;;;;13.13;6.20;;;10.30;99.90;;;;;;5106379;28;20118;-59
2021/10/12 08:30:57;;;;;;;12.95;6.13;;;10.40;99.90;;;;;;5105196;28;20036;-57
2021/10/12 08:33:23;;;;;;;13.07;6.28;;;10.40;99.90;;;;;;5108968;28;20035;-59
2021/10/12 08:35:48;;;;;;;12.82;6.88;;;10.40;99.90;;;;;;5109889;28;20081;-58
2021/10/12 08:38:19;;;;;;;16.15;7.55;;;10.50;99.90;;;;;;5103572;28;20118;-58
2021/10/12 08:40:45;;;;;;;18.65;8.40;;;10.50;99.90;;;;;;5109026;28;20122;-59
2021/10/12 08:43:13;;;;;;;17.25;7.72;;;10.70;99.90;;;;;;5105610;28;20027;-55
2021/10/12 08:45:39;;;;;;;20.48;8.18;;;10.70;99.90;;;;;;5107487;28;20055;-57
2021/10/12 08:48:06;;;;;;;18.58;8.13;;;10.70;99.90;;;;;;5104434;28;20023;-58
2021/10/12 08:50:33;;;;;;;22.02;10.32;;;10.60;99.90;;;;;;5110262;28;20030;-57
2021/10/12 08:53:01;;;;;;;18.95;10.98;;;10.60;99.90;;;;;;5106273;28;20043;-54
2021/10/12 08:55:28;;;;;;;15.75;9.93;;;10.70;99.90;;;;;;5108389;28;20036;-59
2021/10/12 08:57:54;;;;;;;19.23;10.77;;;10.70;99.90;;;;;;5095854;28;20024;-58
2021/10/12 09:00:21;;;;;;;21.50;9.45;;;10.70;99.90;;;;;;5104720;28;20026;-58
2021/10/12 09:03:19;;;;;;;23.67;9.85;;;10.70;99.90;;;;;;5102079;28;20096;-59
2021/10/12 09:05:52;;;;;;;21.60;10.05;;;10.60;99.90;;;;;;5104535;28;20027;-59
2021/10/12 09:08:39;;;;;;;18.23;10.37;;;10.70;99.90;;;;;;5105224;28;20404;-59
2021/10/12 09:11:22;;;;;;;18.95;9.10;;;10.90;99.90;;;;;;5096134;28;20032;-59
2021/10/12 09:13:53;;;;;;;17.20;9.13;;;10.90;99.90;;;;;;5104417;28;22147;-58
2021/10/12 09:16:20;;;;;;;18.10;8.05;;;10.90;99.90;;;;;;5102714;28;20089;-58
2021/10/12 09:18:46;;;;;;;15.95;9.18;;;10.90;99.90;;;;;;5103643;28;20031;-59
2021/10/12 09:21:45;;;;;;;13.43;8.50;;;11.00;99.90;;;;;;5095062;28;20099;-59
2021/10/12 09:24:17;;;;;;;18.00;9.10;;;10.90;99.90;;;;;;5099245;28;20042;-59
2021/10/12 09:26:51;;;;;;;16.00;10.52;;;10.90;99.90;;;;;;5097390;28;20031;-59
2021/10/12 09:29:26;;;;;;;19.77;10.52;;;10.90;99.90;;;;;;5103409;28;20034;-59
2021/10/12 09:31:54;;;;;;;14.85;9.65;;;10.90;99.90;;;;;;5108589;28;20455;-59
2021/10/12 09:34:20;;;;;;;17.77;10.27;;;11.00;99.90;;;;;;5104160;28;20019;-58
2021/10/12 09:36:48;;;;;;;16.05;10.20;;;11.00;99.90;;;;;;5106687;28;20492;-59
2021/10/12 09:39:34;;;;;;;14.88;9.80;;;11.00;99.90;;;;;;5107991;28;20027;-59
2021/10/12 09:42:05;;;;;;;15.15;8.77;;;11.00;99.90;;;;;;5108433;28;20034;-58
2021/10/12 09:44:32;;;;;;;12.75;8.48;;;11.00;99.90;;;;;;5107610;28;20032;-59
2021/10/12 09:47:09;;;;;;;15.82;8.77;;;11.00;99.90;;;;;;5106944;28;20423;-52
2021/10/12 09:49:36;;;;;;;17.23;9.05;;;11.10;99.90;;;;;;5106593;28;20054;-59
2021/10/12 09:52:06;;;;;;;14.77;8.57;;;11.10;99.90;;;;;;5108129;28;20080;-59
2021/10/12 09:54:49;;;;;;;10.45;6.20;;;11.10;99.90;;;;;;5099920;28;20059;-59
2021/10/12 09:57:19;;;;;;;11.00;6.47;;;11.20;99.90;;;;;;5095209;28;20027;-59
2021/10/12 09:59:46;;;;;;;6.80;5.57;;;11.30;99.90;;;;;;5101211;28;20429;-58
2021/10/12 10:02:19;;;;;;;7.70;4.80;;;11.30;99.90;;;;;;5110860;28;20027;-59
2021/10/12 10:04:45;;;;;;;8.43;5.45;;;11.30;99.90;;;;;;5112835;28;20040;-58
2021/10/12 10:07:29;;;;;;;9.73;5.15;;;11.30;99.90;;;;;;5110386;28;20093;-59
2021/10/12 10:09:57;;;;;;;5.95;4.63;;;11.40;99.90;;;;;;5106545;27;20027;-59
2021/10/12 10:12:23;;;;;;;7.47;5.40;;;11.40;99.90;;;;;;5085488;28;20542;-59
2021/10/12 10:14:48;;;;;;;10.38;6.13;;;11.40;99.90;;;;;;5110529;28;20036;-58
2021/10/12 10:17:15;;;;;;;9.30;5.35;;;11.40;99.90;;;;;;5106091;28;20575;-60
2021/10/12 10:19:43;;;;;;;8.50;5.47;;;11.50;99.90;;;;;;5106085;28;20026;-58
2021/10/12 10:22:29;;;;;;;6.95;5.00;;;11.50;99.90;;;;;;5100455;28;20028;-57
2021/10/12 10:24:56;;;;;;;8.60;4.68;;;11.40;99.90;;;;;;5102000;28;20034;-59
2021/10/12 10:27:36;;;;;;;12.02;5.93;;;11.50;99.90;;;;;;5103392;28;20047;-59
2021/10/12 10:30:31;;;;;;;7.10;5.35;;;11.40;99.90;;;;;;5104428;28;20448;-59
2021/10/12 10:33:02;;;;;;;4.53;3.63;;;11.40;99.90;;;;;;5106403;28;20027;-57
2021/10/12 10:35:46;;;;;;;7.68;4.55;;;11.50;99.90;;;;;;5107389;27;20103;-60
2021/10/12 10:38:28;;;;;;;5.13;4.47;;;11.50;99.90;;;;;;5103951;28;20028;-58
2021/10/12 10:41:03;;;;;;;6.82;4.75;;;11.50;99.90;;;;;;5104842;28;20107;-59
2021/10/12 10:43:54;;;;;;;7.57;5.47;;;11.50;99.90;;;;;;5110189;28;20031;-59
2021/10/12 10:46:31;;;;;;;5.53;3.65;;;11.50;99.90;;;;;;5101191;28;20050;-59
2021/10/12 10:49:13;;;;;;;8.55;4.43;;;11.40;99.90;;;;;;5111202;28;20093;-57
2021/10/12 10:52:07;;;;;;;6.88;4.20;;;11.40;99.90;;;;;;5106193;28;20034;-58
2021/10/12 10:55:00;;;;;;;5.22;4.20;;;11.40;99.90;;;;;;5110585;28;20024;-59
2021/10/12 10:57:26;;;;;;;6.22;4.57;;;11.30;99.90;;;;;;5101094;28;20060;-59
2021/10/12 11:00:10;;;;;;;8.18;5.90;;;11.30;99.90;;;;;;5103523;28;20016;-59
2021/10/12 11:02:45;;;;;;;8.80;5.90;;;11.30;99.90;;;;;;5107041;28;20059;-59
2021/10/12 11:05:43;;;;;;;8.13;5.95;;;11.30;99.90;;;;;;5109126;28;20020;-59
2021/10/12 11:08:39;;;;;;;9.57;6.50;;;11.40;99.90;;;;;;5100086;28;20035;-57
2021/10/12 11:11:09;;;;;;;12.35;7.65;;;11.40;99.90;;;;;;5105051;28;20424;-59
2021/10/12 11:13:38;;;;;;;9.10;6.78;;;11.50;99.90;;;;;;5091541;28;20055;-58
2021/10/12 11:16:07;;;;;;;15.38;7.72;;;11.40;99.90;;;;;;5099388;28;20035;-59
2021/10/12 11:18:34;;;;;;;11.30;7.65;;;11.40;99.90;;;;;;5109857;28;20102;-60
2021/10/12 11:21:02;;;;;;;17.27;8.57;;;11.50;99.90;;;;;;5108655;28;20024;-55
2021/10/12 11:23:40;;;;;;;11.43;7.93;;;11.50;99.90;;;;;;5106971;28;20023;-58
2021/10/12 11:26:10;;;;;;;11.60;8.48;;;11.50;99.90;;;;;;5106810;28;20027;-58
2021/10/12 11:28:37;;;;;;;16.42;9.77;;;11.50;99.90;;;;;;5109467;28;20080;-59
2021/10/12 11:31:13;;;;;;;13.90;9.57;;;11.60;99.90;;;;;;5110048;28;20040;-59
2021/10/12 11:33:46;;;;;;;19.05;10.50;;;11.60;99.90;;;;;;5106220;28;20105;-56
2021/10/12 11:36:18;;;;;;;14.25;9.70;;;11.60;99.90;;;;;;5106504;28;20077;-59
2021/10/12 11:38:46;;;;;;;13.07;9.10;;;11.70;99.90;;;;;;5106745;28;20119;-58
2021/10/12 11:41:24;;;;;;;14.30;9.43;;;11.80;99.90;;;;;;5102815;28;20024;-60
2021/10/12 11:43:53;;;;;;;16.48;10.68;;;11.80;99.90;;;;;;5108638;28;20030;-58
2021/10/12 11:46:34;;;;;;;14.75;10.13;;;11.80;99.90;;;;;;5101646;28;20024;-58
2021/10/12 11:49:11;;;;;;;16.25;10.43;;;11.80;99.90;;;;;;5110647;28;20107;-51
2021/10/12 11:51:38;;;;;;;15.70;10.18;;;11.80;99.90;;;;;;5103562;28;20040;-59
2021/10/12 11:54:04;;;;;;;13.75;10.60;;;12.00;99.90;;;;;;5103593;28;20020;-59
2021/10/12 11:56:33;;;;;;;12.52;10.68;;;12.00;99.90;;;;;;5106384;28;20091;-60
2021/10/12 11:58:59;;;;;;;18.23;10.75;;;12.20;99.90;;;;;;5105605;28;20035;-56
2021/10/12 12:01:46;;;;;;;15.05;9.70;;;12.20;99.90;;;;;;5101149;28;20538;-59
2021/10/12 12:04:29;;;;;;;13.75;9.70;;;12.40;99.90;;;;;;5101867;28;20059;-55
2021/10/12 12:06:59;;;;;;;15.38;9.45;;;12.60;99.90;;;;;;5100816;28;20567;-60
2021/10/12 12:09:25;;;;;;;15.07;10.70;;;12.80;99.90;;;;;;5106122;28;20039;-59
2021/10/12 12:11:52;;;;;;;15.48;11.18;;;12.80;99.90;;;;;;5091433;28;20115;-60
2021/10/12 12:14:25;;;;;;;18.02;9.43;;;12.90;99.90;;;;;;5104529;28;20214;-59
2021/10/12 12:17:10;;;;;;;14.55;11.85;;;12.90;99.90;;;;;;5106779;28;20028;-57
2021/10/12 12:19:47;;;;;;;13.35;10.18;;;12.90;99.90;;;;;;5107361;28;20485;-59
2021/10/12 12:22:18;;;;;;;15.55;9.65;;;12.90;99.90;;;;;;5092134;28;20465;-60
2021/10/12 12:25:11;;;;;;;15.38;10.68;;;12.70;99.90;;;;;;5109303;28;20110;-59
2021/10/12 12:27:53;;;;;;;16.30;9.30;;;12.60;99.90;;;;;;5106045;28;20023;-58
2021/10/12 12:30:31;;;;;;;15.95;9.50;;;12.60;99.90;;;;;;5100483;28;20028;-59
2021/10/12 12:32:58;;;;;;;19.23;9.25;;;12.50;99.90;;;;;;5107523;28;20039;-60
2021/10/12 12:35:25;;;;;;;15.73;10.40;;;12.50;99.90;;;;;;5108297;28;20039;-57
2021/10/12 12:37:58;;;;;;;20.95;10.85;;;12.50;99.90;;;;;;5107306;28;20027;-60
2021/10/12 12:40:27;;;;;;;18.80;8.93;;;12.40;99.90;;;;;;5107586;28;20507;-60
2021/10/12 12:42:53;;;;;;;19.15;9.52;;;12.40;99.90;;;;;;5099641;28;20044;-59
2021/10/12 12:45:22;;;;;;;15.63;7.38;;;12.60;99.90;;;;;;5104609;28;20024;-59